Time;durP1;ratioP1;P1;durP2;ratioP2;P2;SDS_P1;SDS_P2;PMS_P1;PMS_P2;Temp;Humidity;BMP_temperature;BMP_pressure;BME280_temperature;BME280_humidity;BME280_pressure;Samples;Min_cycle;Max_cycle;Signal;HPM_P1;HPM_P2
2022/03/14 00:03:55;;;;;;;;;;;12.30;86.30;;;;;;8418373;28;19931;-71
2022/03/14 00:07:59;;;;;;;;;;;12.30;86.30;;;;;;8411719;28;19947;-71
2022/03/14 00:12:00;;;;;;;;;;;12.20;83.70;;;;;;8413883;28;19920;-71
2022/03/14 00:16:03;;;;;;;;;;;12.20;85.50;;;;;;8399643;28;19927;-71
2022/03/14 00:20:06;;;;;;;;;;;12.20;87.10;;;;;;8411138;28;19927;-71
2022/03/14 00:24:08;;;;;;;;;;;12.20;85.70;;;;;;8417476;28;20245;-71
2022/03/14 00:28:12;;;;;;;;;;;12.20;85.20;;;;;;8398318;28;19928;-71
2022/03/14 00:32:13;;;;;;;;;;;12.20;86.60;;;;;;8415372;28;19932;-71
2022/03/14 00:36:15;;;;;;;;;;;12.10;84.50;;;;;;8417698;28;19931;-71
2022/03/14 00:40:17;;;;;;;;;;;12.10;88.00;;;;;;8419506;28;19935;-71
2022/03/14 00:44:19;;;;;;;;;;;12.00;85.90;;;;;;8396189;28;19920;-71
2022/03/14 00:48:20;;;;;;;;;;;12.00;86.00;;;;;;8416693;28;19920;-71
2022/03/14 00:52:22;;;;;;;;;;;11.90;88.20;;;;;;8404075;28;19920;-71
2022/03/14 00:56:24;;;;;;;;;;;11.90;90.40;;;;;;8397784;28;19928;-71
2022/03/14 01:00:26;;;;;;;;;;;11.90;88.00;;;;;;8414939;28;19946;-71
2022/03/14 01:04:28;;;;;;;;;;;11.90;87.00;;;;;;8408850;28;20024;-71
2022/03/14 01:08:30;;;;;;;;;;;11.90;90.40;;;;;;8417502;28;19928;-71
2022/03/14 01:12:32;;;;;;;;;;;11.80;88.20;;;;;;8419534;28;19928;-71
2022/03/14 01:16:34;;;;;;;;;;;11.80;87.10;;;;;;8412594;28;19928;-71
2022/03/14 01:20:36;;;;;;;;;;;11.80;90.80;;;;;;8394685;28;19929;-71
2022/03/14 01:24:38;;;;;;;;;;;11.70;91.70;;;;;;8414966;28;20390;-71
2022/03/14 01:28:40;;;;;;;;;;;11.70;91.10;;;;;;8395362;28;19927;-71
2022/03/14 01:32:42;;;;;;;;;;;11.60;91.90;;;;;;8407495;28;19928;-71
2022/03/14 01:36:43;;;;;;;;;;;11.60;92.80;;;;;;8413402;28;20396;-71
2022/03/14 01:40:45;;;;;;;;;;;11.60;90.70;;;;;;8392625;28;19944;-71
2022/03/14 01:44:47;;;;;;;;;;;11.60;90.60;;;;;;8424131;28;19920;-71
2022/03/14 01:48:48;;;;;;;;;;;11.50;90.80;;;;;;8431621;28;20017;-71
2022/03/14 01:52:50;;;;;;;;;;;11.50;90.70;;;;;;8387917;28;19993;-71
2022/03/14 01:56:52;;;;;;;;;;;11.50;91.70;;;;;;8409464;28;19928;-71
2022/03/14 02:00:54;;;;;;;;;;;11.50;91.20;;;;;;8414603;28;19934;-71
2022/03/14 02:04:55;;;;;;;;;;;11.40;93.10;;;;;;8400488;28;19935;-71
2022/03/14 02:08:57;;;;;;;;;;;11.40;93.20;;;;;;8413437;28;20457;-71
2022/03/14 02:13:02;;;;;;;;;;;11.30;91.50;;;;;;8393330;28;20010;-71
2022/03/14 02:17:04;;;;;;;;;;;11.30;91.50;;;;;;8393253;28;19928;-71
2022/03/14 02:21:06;;;;;;;;;;;11.30;92.20;;;;;;8416119;28;19928;-71
2022/03/14 02:25:09;;;;;;;;;;;11.20;92.20;;;;;;8387529;28;19928;-71
2022/03/14 02:29:14;;;;;;;;;;;11.10;95.80;;;;;;8417578;28;19921;-71
2022/03/14 02:33:16;;;;;;;;;;;11.10;92.80;;;;;;8416279;28;20018;-71
2022/03/14 02:37:17;;;;;;;;;;;11.10;93.90;;;;;;8412975;28;19970;-71
2022/03/14 02:41:21;;;;;;;;;;;11.10;93.00;;;;;;8391299;28;20424;-71
2022/03/14 02:45:23;;;;;;;;;;;11.00;94.80;;;;;;8405280;28;19920;-71
2022/03/14 02:49:25;;;;;;;;;;;11.00;95.60;;;;;;8425726;28;20351;-71
2022/03/14 02:53:26;;;;;;;;;;;11.00;95.60;;;;;;8409764;28;19971;-71
2022/03/14 02:57:28;;;;;;;;;;;10.90;97.30;;;;;;8404530;28;20296;-71
2022/03/14 03:01:30;;;;;;;;;;;10.90;95.40;;;;;;8428183;28;19928;-71
2022/03/14 03:05:35;;;;;;;;;;;10.90;94.90;;;;;;8409892;28;19931;-71
2022/03/14 03:09:37;;;;;;;;;;;10.90;96.80;;;;;;8396839;28;19937;-71
2022/03/14 03:13:40;;;;;;;;;;;10.80;95.60;;;;;;8419924;28;19969;-71
2022/03/14 03:17:42;;;;;;;;;;;10.80;96.60;;;;;;8409825;28;19947;-71
2022/03/14 03:21:44;;;;;;;;;;;10.80;96.00;;;;;;8413708;28;19925;-71
2022/03/14 03:25:45;;;;;;;;;;;10.80;96.90;;;;;;8402481;28;19924;-71
2022/03/14 03:29:47;;;;;;;;;;;10.80;96.20;;;;;;8424204;28;19927;-71
2022/03/14 03:33:50;;;;;;;;;;;10.70;96.30;;;;;;8420542;28;19927;-70
2022/03/14 03:37:51;;;;;;;;;;;10.70;97.10;;;;;;8406852;28;20375;-71
2022/03/14 03:41:53;;;;;;;;;;;10.60;99.50;;;;;;8409887;28;19930;-71
2022/03/14 03:45:55;;;;;;;;;;;10.60;99.90;;;;;;8410730;28;20353;-71
2022/03/14 03:49:57;;;;;;;;;;;10.50;99.90;;;;;;8412709;28;19920;-71
2022/03/14 03:53:59;;;;;;;;;;;10.40;99.90;;;;;;8416294;28;20282;-71
2022/03/14 03:58:01;;;;;;;;;;;10.40;99.90;;;;;;8397438;28;19920;-71
2022/03/14 04:02:04;;;;;;;;;;;10.30;99.90;;;;;;8415091;28;19920;-71
2022/03/14 04:06:06;;;;;;;;;;;10.30;99.90;;;;;;8388451;28;20002;-71
2022/03/14 04:10:08;;;;;;;;;;;10.30;99.90;;;;;;8408947;28;19932;-71
2022/03/14 04:14:10;;;;;;;;;;;10.30;99.90;;;;;;8395864;28;19962;-71
2022/03/14 04:18:12;;;;;;;;;;;10.30;99.90;;;;;;8408991;28;20321;-71
2022/03/14 04:22:15;;;;;;;;;;;10.30;99.90;;;;;;8405447;28;20536;-70
2022/03/14 04:26:17;;;;;;;;;;;10.30;99.90;;;;;;8418251;28;20398;-71
2022/03/14 04:30:19;;;;;;;;;;;10.20;99.90;;;;;;8418028;28;20348;-70
2022/03/14 04:34:20;;;;;;;;;;;10.20;99.90;;;;;;8415729;28;19924;-71
2022/03/14 04:38:23;;;;;;;;;;;10.10;99.90;;;;;;8416524;28;19921;-71
2022/03/14 04:42:26;;;;;;;;;;;10.10;99.90;;;;;;8407085;28;20086;-71
2022/03/14 04:46:27;;;;;;;;;;;10.10;99.90;;;;;;8408281;28;20283;-71
2022/03/14 04:50:29;;;;;;;;;;;10.00;99.90;;;;;;8403084;28;20021;-71
2022/03/14 04:54:31;;;;;;;;;;;10.00;99.90;;;;;;8413368;28;19927;-71
2022/03/14 04:58:32;;;;;;;;;;;9.90;99.90;;;;;;8415265;28;19921;-71
2022/03/14 05:02:34;;;;;;;;;;;9.80;99.90;;;;;;8411031;28;19924;-71
2022/03/14 05:06:37;;;;;;;;;;;9.70;99.90;;;;;;8393420;28;19920;-70
2022/03/14 05:10:39;;;;;;;;;;;9.70;99.90;;;;;;8411504;28;20287;-71
2022/03/14 05:14:40;;;;;;;;;;;9.70;99.90;;;;;;8409629;28;19996;-71
2022/03/14 05:18:42;;;;;;;;;;;9.60;99.90;;;;;;8412042;28;19969;-71
2022/03/14 05:22:45;;;;;;;;;;;9.50;99.90;;;;;;8411906;28;19920;-71
2022/03/14 05:26:52;;;;;;;;;;;9.50;99.90;;;;;;8416757;28;19927;-70
2022/03/14 05:30:54;;;;;;;;;;;9.50;99.90;;;;;;8402175;28;19920;-70
2022/03/14 05:34:56;;;;;;;;;;;9.40;99.90;;;;;;8414412;28;19923;-70
2022/03/14 05:38:57;;;;;;;;;;;9.50;99.90;;;;;;8416858;28;20386;-70
2022/03/14 05:43:08;;;;;;;;;;;9.40;99.90;;;;;;8418197;28;20221;-70
2022/03/14 05:47:10;;;;;;;;;;;9.50;99.90;;;;;;8418672;28;20279;-70
2022/03/14 05:51:11;;;;;;;;;;;9.50;99.90;;;;;;8417207;28;19935;-70
2022/03/14 05:55:13;;;;;;;;;;;9.50;99.90;;;;;;8419194;28;20298;-70
2022/03/14 05:59:14;;;;;;;;;;;9.40;99.90;;;;;;8418582;28;19928;-70
2022/03/14 06:03:16;;;;;;;;;;;9.40;99.90;;;;;;8393036;28;19963;-70
2022/03/14 06:07:19;;;;;;;;;;;9.40;99.90;;;;;;8422945;28;20000;-70
2022/03/14 06:11:21;;;;;;;;;;;9.30;99.90;;;;;;8400543;28;20426;-70
2022/03/14 06:15:23;;;;;;;;;;;9.30;99.90;;;;;;8424485;28;19924;-70
2022/03/14 06:19:25;;;;;;;;;;;9.30;99.90;;;;;;8421221;28;19977;-70
2022/03/14 06:23:26;;;;;;;;;;;9.30;99.90;;;;;;8416597;28;19932;-70
2022/03/14 06:27:28;;;;;;;;;;;9.30;99.90;;;;;;8417011;28;19924;-70
2022/03/14 06:31:32;;;;;;;;;;;9.30;99.90;;;;;;8409842;28;20025;-70
2022/03/14 06:35:35;;;;;;;;;;;9.20;99.90;;;;;;8430390;28;19928;-70
2022/03/14 06:39:37;;;;;;;;;;;9.30;99.90;;;;;;8415694;28;19924;-70
2022/03/14 06:43:39;;;;;;;;;;;9.30;99.90;;;;;;8384056;28;21822;-70
2022/03/14 06:47:41;;;;;;;;;;;9.30;99.90;;;;;;8417975;28;20292;-70
2022/03/14 06:51:42;;;;;;;;;;;9.30;99.90;;;;;;8409891;28;19924;-70
2022/03/14 06:55:44;;;;;;;;;;;9.30;99.90;;;;;;8412667;28;19924;-71
2022/03/14 06:59:45;;;;;;;;;;;9.30;99.90;;;;;;8421586;28;19928;-70
2022/03/14 07:03:47;;;;;;;;;;;9.30;99.90;;;;;;8415413;28;19955;-70
2022/03/14 07:07:49;;;;;;;;;;;9.30;99.90;;;;;;8401620;28;19932;-70
2022/03/14 07:11:51;;;;;;;;;;;9.40;99.90;;;;;;8417759;28;19924;-70
2022/03/14 07:15:53;;;;;;;;;;;9.40;99.90;;;;;;8428999;28;19932;-70
2022/03/14 07:19:55;;;;;;;;;;;9.50;99.90;;;;;;8425619;28;19932;-70
2022/03/14 07:23:57;;;;;;;;;;;9.50;99.90;;;;;;8431132;28;19931;-70
2022/03/14 07:27:59;;;;;;;;;;;9.50;99.90;;;;;;8424039;28;19924;-70
2022/03/14 07:32:01;;;;;;;;;;;9.60;99.90;;;;;;8419860;28;19925;-70
2022/03/14 07:36:03;;;;;;;;;;;9.60;99.90;;;;;;8417908;28;19924;-70
2022/03/14 07:40:06;;;;;;;;;;;9.70;99.90;;;;;;8421407;28;19940;-71
2022/03/14 07:44:08;;;;;;;;;;;9.70;99.90;;;;;;8414863;28;19924;-70
2022/03/14 07:48:09;;;;;;;;;;;9.80;99.90;;;;;;8420255;28;19931;-70
2022/03/14 07:52:11;;;;;;;;;;;9.80;99.90;;;;;;8404402;28;19924;-71
2022/03/14 07:56:14;;;;;;;;;;;9.80;99.90;;;;;;8398382;28;20260;-70
2022/03/14 08:00:18;;;;;;;;;;;9.80;99.90;;;;;;8417552;28;19932;-70
2022/03/14 08:04:20;;;;;;;;;;;9.80;99.90;;;;;;8421257;28;19942;-70
2022/03/14 08:08:23;;;;;;;;;;;9.90;99.90;;;;;;8422192;28;19932;-70
2022/03/14 08:12:24;;;;;;;;;;;10.00;99.90;;;;;;8421191;28;19932;-70
2022/03/14 08:16:26;;;;;;;;;;;10.00;99.90;;;;;;8422325;28;20008;-70
2022/03/14 08:20:28;;;;;;;;;;;10.00;99.90;;;;;;8428371;28;20323;-70
2022/03/14 08:24:30;;;;;;;;;;;9.90;99.90;;;;;;8419269;28;19932;-70
2022/03/14 08:28:32;;;;;;;;;;;9.90;99.90;;;;;;8414599;28;19932;-70
2022/03/14 08:32:34;;;;;;;;;;;9.90;99.90;;;;;;8417910;28;19924;-70
2022/03/14 08:36:36;;;;;;;;;;;9.90;99.90;;;;;;8421490;28;19928;-71
2022/03/14 08:40:38;;;;;;;;;;;9.90;99.90;;;;;;8418641;28;19940;-70
2022/03/14 08:44:40;;;;;;;;;;;10.00;99.90;;;;;;8420007;28;19924;-70
2022/03/14 08:48:42;;;;;;;;;;;10.00;99.90;;;;;;8415178;28;19981;-70
2022/03/14 08:52:45;;;;;;;;;;;10.00;99.90;;;;;;8405954;28;19924;-71
2022/03/14 08:56:47;;;;;;;;;;;10.00;99.90;;;;;;8422128;28;19930;-71
2022/03/14 09:00:49;;;;;;;;;;;10.00;99.90;;;;;;8418476;28;19954;-71
2022/03/14 09:04:51;;;;;;;;;;;10.00;99.90;;;;;;8396993;28;19929;-70
2022/03/14 09:08:53;;;;;;;;;;;10.00;99.90;;;;;;8420737;28;19932;-71
2022/03/14 09:12:55;;;;;;;;;;;10.00;99.90;;;;;;8412400;28;19978;-71
2022/03/14 09:16:57;;;;;;;;;;;10.10;99.90;;;;;;8402315;28;19932;-71
2022/03/14 09:20:59;;;;;;;;;;;10.20;99.90;;;;;;8389962;28;19924;-71
2022/03/14 09:25:01;;;;;;;;;;;10.20;99.90;;;;;;8413990;28;19924;-70
2022/03/14 09:29:02;;;;;;;;;;;10.20;99.90;;;;;;8422919;28;19940;-70
2022/03/14 09:33:04;;;;;;;;;;;10.30;99.90;;;;;;8415848;28;19955;-70
2022/03/14 09:37:06;;;;;;;;;;;10.30;99.90;;;;;;8411028;28;19971;-71
2022/03/14 09:41:08;;;;;;;;;;;10.30;99.90;;;;;;8418744;28;19924;-71
2022/03/14 09:45:11;;;;;;;;;;;10.30;99.90;;;;;;8422364;28;20248;-71
2022/03/14 09:49:14;;;;;;;;;;;10.20;99.90;;;;;;8421880;28;19931;-71
2022/03/14 09:53:17;;;;;;;;;;;10.20;99.90;;;;;;8397172;28;19928;-71
2022/03/14 09:57:19;;;;;;;;;;;10.30;99.90;;;;;;8411094;28;19927;-71
2022/03/14 10:01:20;;;;;;;;;;;10.40;99.90;;;;;;8418342;28;19924;-71
2022/03/14 10:05:24;;;;;;;;;;;10.50;99.90;;;;;;8412597;28;19968;-70
2022/03/14 10:09:25;;;;;;;;;;;10.60;99.90;;;;;;8414415;28;19936;-71
2022/03/14 10:13:27;;;;;;;;;;;10.70;99.90;;;;;;8415394;28;19924;-71
2022/03/14 10:17:29;;;;;;;;;;;10.70;99.90;;;;;;8422027;28;19947;-71
2022/03/14 10:21:33;;;;;;;;;;;10.80;99.90;;;;;;8417156;28;19932;-70
2022/03/14 10:25:40;;;;;;;;;;;10.90;99.90;;;;;;8419882;28;19931;-70
2022/03/14 10:29:42;;;;;;;;;;;10.90;99.90;;;;;;8420772;28;20288;-71
2022/03/14 10:33:48;;;;;;;;;;;11.10;99.90;;;;;;8414707;28;19925;-71
2022/03/14 10:37:59;;;;;;;;;;;11.20;99.90;;;;;;8423047;28;19932;-71
2022/03/14 10:42:04;;;;;;;;;;;11.10;99.90;;;;;;8418557;28;19970;-71
2022/03/14 10:46:25;;;;;;;;;;;11.00;99.90;;;;;;8426134;28;19924;-70
2022/03/14 10:50:30;;;;;;;;;;;11.00;99.90;;;;;;8425657;28;20098;-70
2022/03/14 10:54:34;;;;;;;;;;;10.90;99.90;;;;;;8424141;28;19947;-70
2022/03/14 10:58:36;;;;;;;;;;;10.90;99.90;;;;;;8409298;28;20307;-71
2022/03/14 11:02:38;;;;;;;;;;;11.00;99.90;;;;;;8429532;28;19928;-68
2022/03/14 11:06:39;;;;;;;;;;;11.00;99.90;;;;;;8419676;28;19978;-69
2022/03/14 11:10:41;;;;;;;;;;;11.00;99.90;;;;;;8412169;28;19932;-69
2022/03/14 11:14:50;;;;;;;;;;;11.00;99.90;;;;;;8407745;28;19931;-69
2022/03/14 11:18:53;;;;;;;;;;;11.20;99.90;;;;;;8416329;28;19932;-69
2022/03/14 11:22:55;;;;;;;;;;;11.40;99.90;;;;;;8401052;28;20000;-69
2022/03/14 11:26:58;;;;;;;;;;;11.50;99.90;;;;;;8397494;28;19935;-69
2022/03/14 11:31:00;;;;;;;;;;;11.60;99.90;;;;;;8416076;28;20382;-69
2022/03/14 11:35:03;;;;;;;;;;;11.70;99.90;;;;;;8377585;28;19925;-69
2022/03/14 11:39:05;;;;;;;;;;;11.70;99.90;;;;;;8382691;28;19925;-69
2022/03/14 11:43:09;;;;;;;;;;;11.70;99.90;;;;;;8386689;28;19925;-69
2022/03/14 11:47:12;;;;;;;;;;;11.70;99.90;;;;;;8389884;28;19955;-69
2022/03/14 11:51:13;;;;;;;;;;;11.70;99.90;;;;;;8382289;28;19965;-69
2022/03/14 11:55:17;;;;;;;;;;;11.70;99.90;;;;;;8387494;28;19931;-69
2022/03/14 11:59:26;;;;;;;;;;;11.80;99.90;;;;;;8387760;28;19929;-68
2022/03/14 12:03:35;;;;;;;;;;;11.90;99.90;;;;;;8389270;28;20363;-69
2022/03/14 12:07:36;;;;;;;;;;;12.00;99.90;;;;;;8393014;28;19951;-68
2022/03/14 12:11:40;;;;;;;;;;;12.40;99.90;;;;;;8393927;28;20287;-69
2022/03/14 12:15:42;;;;;;;;;;;12.80;99.90;;;;;;8393160;28;19924;-69
2022/03/14 12:19:48;;;;;;;;;;;13.20;99.90;;;;;;8388474;28;19932;-69
2022/03/14 12:23:53;;;;;;;;;;;13.50;99.90;;;;;;8383154;28;19925;-69
2022/03/14 12:27:55;;;;;;;;;;;13.50;99.90;;;;;;8380699;28;19929;-69
2022/03/14 12:32:16;;;;;;;;;;;13.60;99.90;;;;;;8384318;28;19924;-69
2022/03/14 12:36:23;;;;;;;;;;;13.60;99.90;;;;;;8355051;28;19951;-69
2022/03/14 12:40:25;;;;;;;;;;;13.40;99.90;;;;;;8348152;28;19932;-69
2022/03/14 12:44:27;;;;;;;;;;;13.30;99.90;;;;;;8347018;28;19928;-69
2022/03/14 12:48:30;;;;;;;;;;;13.30;99.90;;;;;;8360156;28;19925;-69
2022/03/14 12:52:32;;;;;;;;;;;13.40;99.90;;;;;;8352321;28;19924;-69
2022/03/14 12:56:36;;;;;;;;;;;13.60;99.90;;;;;;8350874;28;19925;-69
2022/03/14 13:00:38;;;;;;;;;;;13.60;99.90;;;;;;8349925;28;19925;-69
2022/03/14 13:04:56;;;;;;;;;;;13.50;99.90;;;;;;8360348;28;19978;-69
2022/03/14 13:08:58;;;;;;;;;;;13.40;99.90;;;;;;8353490;28;19928;-69
2022/03/14 13:13:00;;;;;;;;;;;13.30;99.90;;;;;;8353818;28;19928;-69
2022/03/14 13:17:02;;;;;;;;;;;13.20;99.90;;;;;;8348354;28;20384;-69
2022/03/14 13:21:18;;;;;;;;;;;13.40;99.90;;;;;;8357660;28;19939;-69
2022/03/14 13:25:32;;;;;;;;;;;13.50;99.90;;;;;;8345571;28;19940;-70
2022/03/14 13:29:34;;;;;;;;;;;13.40;99.90;;;;;;8349564;28;19928;-69
2022/03/14 13:33:36;;;;;;;;;;;13.20;99.90;;;;;;8376491;28;19924;-69
2022/03/14 13:37:45;;;;;;;;;;;13.00;99.90;;;;;;8426308;28;19963;-69
2022/03/14 13:41:47;;;;;;;;;;;12.90;99.90;;;;;;8402498;28;19924;-69
2022/03/14 13:45:48;;;;;;;;;;;12.80;99.90;;;;;;8416759;28;19956;-69
2022/03/14 13:50:01;;;;;;;;;;;12.80;99.90;;;;;;8423332;28;19923;-68
2022/03/14 13:54:12;;;;;;;;;;;12.80;99.90;;;;;;8395547;28;20053;-69
2022/03/14 13:58:22;;;;;;;;;;;12.90;99.90;;;;;;8400518;28;19939;-69
2022/03/14 14:02:34;;;;;;;;;;;13.10;99.90;;;;;;8412393;28;19927;-69
2022/03/14 14:06:40;;;;;;;;;;;13.40;99.90;;;;;;8423270;28;19919;-69
2022/03/14 14:10:46;;;;;;;;;;;13.60;99.90;;;;;;8393773;28;20348;-69
2022/03/14 14:14:54;;;;;;;;;;;13.90;99.90;;;;;;8411650;28;19931;-69
2022/03/14 14:19:08;;;;;;;;;;;14.30;99.90;;;;;;8414300;28;19936;-68
2022/03/14 14:23:14;;;;;;;;;;;14.40;99.90;;;;;;8417615;28;19932;-68
2022/03/14 14:27:47;;;;;;;;;;;14.70;99.90;;;;;;8413635;28;20363;-69
2022/03/14 14:31:49;;;;;;;;;;;15.50;99.90;;;;;;8415870;28;19920;-69
2022/03/14 14:35:52;;;;;;;;;;;16.10;99.90;;;;;;8422116;28;19920;-68
2022/03/14 14:39:53;;;;;;;;;;;16.20;99.90;;;;;;8418702;28;19920;-68
2022/03/14 14:43:56;;;;;;;;;;;15.80;99.90;;;;;;8420224;28;20309;-68
2022/03/14 14:47:58;;;;;;;;;;;15.30;99.90;;;;;;8415540;28;19919;-69
2022/03/14 14:52:00;;;;;;;;;;;15.00;99.90;;;;;;8402060;28;19920;-68
2022/03/14 14:56:03;;;;;;;;;;;15.90;99.90;;;;;;8414251;28;19920;-68
2022/03/14 15:00:09;;;;;;;;;;;16.90;99.90;;;;;;8408696;28;20363;-69
2022/03/14 15:04:12;;;;;;;8.35;4.07;;;17.40;99.90;;;;;;8419375;28;19920;-69
2022/03/14 15:08:14;;;;;;;8.90;3.93;;;17.90;99.90;;;;;;8421497;28;20052;-69
2022/03/14 15:12:16;;;;;;;;;;;18.20;99.90;;;;;;8410727;28;20571;-69
2022/03/14 15:16:18;;;;;;;;;;;17.70;99.90;;;;;;8415922;28;19924;-69
2022/03/14 15:20:20;;;;;;;;;;;17.00;99.90;;;;;;8415284;28;20496;-69
2022/03/14 15:24:23;;;;;;;;;;;17.10;99.90;;;;;;8396951;28;20355;-69
2022/03/14 15:28:25;;;;;;;;;;;17.50;99.90;;;;;;8415076;28;19920;-68
2022/03/14 15:32:26;;;;;;;;;;;18.00;99.90;;;;;;8396004;28;19920;-69
2022/03/14 15:36:32;;;;;;;11.70;6.32;;;18.40;99.90;;;;;;8421179;28;19973;-69
2022/03/14 15:40:33;;;;;;;;;;;18.70;99.90;;;;;;8418879;28;20047;-69
2022/03/14 15:44:35;;;;;;;;;;;18.70;99.90;;;;;;8426365;28;19924;-69
2022/03/14 15:48:37;;;;;;;;;;;18.30;99.90;;;;;;8424972;28;19920;-69
2022/03/14 15:52:40;;;;;;;;;;;18.00;99.90;;;;;;8413850;28;19924;-69
2022/03/14 15:56:42;;;;;;;;;;;18.20;99.90;;;;;;8425953;28;20367;-69
2022/03/14 16:00:44;;;;;;;;;;;18.40;99.90;;;;;;8396957;28;19927;-69
2022/03/14 16:04:45;;;;;;;;;;;18.10;99.90;;;;;;8425431;28;19920;-68
2022/03/14 16:08:47;;;;;;;;;;;17.50;99.90;;;;;;8424930;28;19927;-69
2022/03/14 16:12:49;;;;;;;;;;;17.40;99.90;;;;;;8417674;28;19919;-69
2022/03/14 16:16:51;;;;;;;;;;;17.40;99.90;;;;;;8390153;28;19931;-69
2022/03/14 16:20:53;;;;;;;;;;;17.40;99.90;;;;;;8395765;28;19922;-69
2022/03/14 16:24:54;;;;;;;;;;;17.70;99.90;;;;;;8411708;28;19927;-69
2022/03/14 16:29:06;;;;;;;;;;;17.80;99.90;;;;;;8412913;28;19931;-69
2022/03/14 16:33:08;;;;;;;;;;;17.80;99.90;;;;;;8407616;28;20288;-69
2022/03/14 16:37:09;;;;;;;;;;;17.50;99.90;;;;;;8413754;28;19928;-69
2022/03/14 16:41:11;;;;;;;;;;;17.40;99.90;;;;;;8426845;28;19927;-69
2022/03/14 16:45:13;;;;;;;;;;;17.40;99.90;;;;;;8418601;28;19928;-69
2022/03/14 16:49:14;;;;;;;;;;;17.30;99.90;;;;;;8422524;28;20359;-69
2022/03/14 16:53:16;;;;;;;;;;;17.10;99.90;;;;;;8404908;28;19928;-69
2022/03/14 16:57:18;;;;;;;;;;;16.90;99.90;;;;;;8391289;28;19964;-69
2022/03/14 17:01:19;;;;;;;;;;;16.70;99.90;;;;;;8398841;28;19932;-69
2022/03/14 17:05:21;;;;;;;;;;;16.40;99.90;;;;;;8389720;28;19920;-69
2022/03/14 17:09:23;;;;;;;;;;;15.90;99.90;;;;;;8378489;28;19920;-69
2022/03/14 17:13:24;;;;;;;;;;;15.40;99.90;;;;;;8396969;28;19928;-69
2022/03/14 17:17:26;;;;;;;;;;;14.90;99.90;;;;;;8390495;28;19928;-69
2022/03/14 17:21:28;;;;;;;;;;;14.60;99.90;;;;;;8388287;28;19920;-68
2022/03/14 17:25:30;;;;;;;;;;;14.30;99.90;;;;;;8388988;28;19920;-69
2022/03/14 17:29:32;;;;;;;;;;;14.20;99.90;;;;;;8398007;28;19928;-69
2022/03/14 17:33:35;;;;;;;;;;;14.10;99.90;;;;;;8396126;28;19998;-69
2022/03/14 17:37:37;;;;;;;;;;;13.90;99.90;;;;;;8397614;28;20371;-68
2022/03/14 17:41:39;;;;;;;;;;;13.70;99.90;;;;;;8392332;28;19920;-69
2022/03/14 17:45:40;;;;;;;;;;;13.50;99.90;;;;;;8401403;28;19924;-69
2022/03/14 17:49:42;;;;;;;;;;;13.30;99.90;;;;;;8380574;28;19928;-68
2022/03/14 17:53:46;;;;;;;;;;;13.20;99.90;;;;;;8382959;28;19928;-68
2022/03/14 17:57:47;;;;;;;;;;;13.00;99.90;;;;;;8389299;28;20230;-68
2022/03/14 18:01:49;;;;;;;;;;;12.90;99.90;;;;;;8393972;28;20294;-68
2022/03/14 18:05:51;;;;;;;;;;;12.80;99.90;;;;;;8379280;28;19966;-68
2022/03/14 18:09:53;;;;;;;;;;;12.60;99.90;;;;;;8395788;28;19929;-68
2022/03/14 18:13:54;;;;;;;;;;;12.50;99.90;;;;;;8397347;28;19928;-68
2022/03/14 18:17:56;;;;;;;;;;;12.40;99.90;;;;;;8394112;28;19929;-68
2022/03/14 18:21:58;;;;;;;;;;;12.40;99.90;;;;;;8391251;28;19943;-68
2022/03/14 18:26:01;;;;;;;;;;;12.30;99.90;;;;;;8393167;28;19928;-69
2022/03/14 18:30:03;;;;;;;;;;;12.20;99.90;;;;;;8389234;28;19932;-69
2022/03/14 18:34:10;;;;;;;;;;;12.00;99.90;;;;;;8397894;28;19931;-69
2022/03/14 18:38:11;;;;;;;;;;;11.70;99.90;;;;;;8388861;28;19925;-69
2022/03/14 18:42:14;;;;;;;;;;;11.60;99.90;;;;;;8386432;28;19928;-69
2022/03/14 18:46:15;;;;;;;;;;;11.50;99.90;;;;;;8400376;28;20401;-69
2022/03/14 18:50:17;;;;;;;;;;;11.30;99.90;;;;;;8395841;28;19928;-69
2022/03/14 18:54:39;;;;;;;;;;;11.20;99.90;;;;;;8377992;28;20014;-69
2022/03/14 18:58:40;;;;;;;;;;;11.00;99.90;;;;;;8391313;28;19924;-69
2022/03/14 19:02:45;;;;;;;;;;;10.90;99.90;;;;;;8392623;28;20299;-69
2022/03/14 19:06:47;;;;;;;;;;;10.80;99.90;;;;;;8386326;28;19927;-69
2022/03/14 19:10:49;;;;;;;;;;;10.70;99.90;;;;;;8396839;28;19931;-69
2022/03/14 19:14:54;;;;;;;;;;;10.60;99.90;;;;;;8390079;28;19943;-69
2022/03/14 19:18:59;;;;;;;;;;;10.60;99.90;;;;;;8400591;28;20369;-69
2022/03/14 19:23:01;;;;;;;;;;;10.50;99.90;;;;;;8403579;28;19927;-69
2022/03/14 19:27:04;;;;;;;;;;;10.40;99.90;;;;;;8405973;28;19927;-69
2022/03/14 19:31:06;;;;;;;;;;;10.30;99.90;;;;;;8401388;28;19919;-68
2022/03/14 19:35:11;;;;;;;;;;;10.10;99.90;;;;;;8393596;28;20012;-69
2022/03/14 19:39:13;;;;;;;;;;;9.90;99.90;;;;;;8403523;28;19927;-69
2022/03/14 19:43:18;;;;;;;;;;;9.70;99.90;;;;;;8402791;28;19928;-69
2022/03/14 19:47:19;;;;;;;;;;;9.60;99.90;;;;;;8400977;28;19924;-69
2022/03/14 19:51:21;;;;;;;;;;;9.50;99.90;;;;;;8383872;28;19928;-69
2022/03/14 19:55:23;;;;;;;;;;;9.40;99.90;;;;;;8400985;28;20318;-69
2022/03/14 19:59:26;;;;;;;;;;;9.30;99.90;;;;;;8382042;28;19963;-69
2022/03/14 20:03:28;;;;;;;;;;;9.30;99.90;;;;;;8398420;28;20244;-69
2022/03/14 20:07:34;;;;;;;;;;;9.20;99.90;;;;;;8395841;28;20290;-69
2022/03/14 20:11:36;;;;;;;;;;;9.10;99.90;;;;;;8399404;28;19963;-69
2022/03/14 20:15:37;;;;;;;;;;;9.00;99.90;;;;;;8400384;28;19920;-69
2022/03/14 20:19:41;;;;;;;;;;;9.00;99.90;;;;;;8386412;28;19924;-69
2022/03/14 20:23:43;;;;;;;;;;;9.00;99.90;;;;;;8406031;28;19939;-69
2022/03/14 20:27:46;;;;;;;;;;;8.90;99.90;;;;;;8403908;28;19939;-69
2022/03/14 20:31:47;;;;;;;;;;;8.90;99.90;;;;;;8391835;28;22173;-69
2022/03/14 20:35:49;;;;;;;;;;;8.90;99.90;;;;;;8378696;28;19981;-69
2022/03/14 20:39:51;;;;;;;;;;;8.90;99.90;;;;;;8391787;28;19936;-69
2022/03/14 20:43:53;;;;;;;;;;;8.80;99.90;;;;;;8395721;28;19951;-69
2022/03/14 20:47:55;;;;;;;;;;;8.70;99.90;;;;;;8402253;28;19919;-69
2022/03/14 20:51:57;;;;;;;;;;;8.60;99.90;;;;;;8394381;28;19955;-69
2022/03/14 20:56:00;;;;;;;;;;;8.50;99.90;;;;;;8414607;28;19920;-69
2022/03/14 21:00:06;;;;;;;;;;;8.50;99.90;;;;;;8405661;28;19939;-69
2022/03/14 21:04:08;;;;;;;;;;;8.40;99.90;;;;;;8401917;28;20038;-69
2022/03/14 21:08:14;;;;;;;;;;;8.30;99.90;;;;;;8392241;28;19935;-69
2022/03/14 21:12:16;;;;;;;;;;;8.20;99.90;;;;;;8393558;28;20027;-69
2022/03/14 21:16:18;;;;;;;;;;;8.10;99.90;;;;;;8398575;28;19924;-69
2022/03/14 21:20:20;;;;;;;;;;;8.10;99.90;;;;;;8390405;28;19924;-69
2022/03/14 21:24:25;;;;;;;;;;;8.00;99.90;;;;;;8387516;28;19927;-69
2022/03/14 21:28:26;;;;;;;;;;;7.90;99.90;;;;;;8389747;28;19927;-69
2022/03/14 21:32:28;;;;;;;;;;;7.90;99.90;;;;;;8386711;28;20390;-69
2022/03/14 21:36:30;;;;;;;;;;;7.80;99.90;;;;;;8384654;28;20000;-69
2022/03/14 21:40:35;;;;;;;;;;;7.80;99.90;;;;;;8388058;28;19920;-69
2022/03/14 21:44:37;;;;;;;;;;;7.70;99.90;;;;;;8400057;28;19928;-69
2022/03/14 21:48:39;;;;;;;;;;;7.70;99.90;;;;;;8397328;28;19921;-69
2022/03/14 21:52:41;;;;;;;;;;;7.70;99.90;;;;;;8399796;28;19928;-69
2022/03/14 21:56:43;;;;;;;;;;;7.60;99.90;;;;;;8375562;28;19928;-69
2022/03/14 22:00:45;;;;;;;;;;;7.60;99.90;;;;;;8397423;28;19975;-69
2022/03/14 22:04:47;;;;;;;;;;;7.60;99.90;;;;;;8413803;28;19927;-69
2022/03/14 22:08:49;;;;;;;;;;;7.50;99.90;;;;;;8418666;28;19927;-69
2022/03/14 22:12:50;;;;;;;;;;;7.40;99.90;;;;;;8411754;28;20303;-69
2022/03/14 22:16:52;;;;;;;;;;;7.40;99.90;;;;;;8419020;28;20027;-69
2022/03/14 22:20:54;;;;;;;;;;;7.30;99.90;;;;;;8424866;28;19919;-69
2022/03/14 22:24:57;;;;;;;;;;;7.30;99.90;;;;;;8398581;28;19924;-69
2022/03/14 22:28:58;;;;;;;;;;;7.20;99.90;;;;;;8396245;28;19920;-69
2022/03/14 22:33:00;;;;;;;;;;;7.20;99.90;;;;;;8415881;28;19931;-69
2022/03/14 22:37:02;;;;;;;;;;;7.20;99.90;;;;;;8407378;28;19967;-69
2022/03/14 22:41:05;;;;;;;;;;;7.20;99.90;;;;;;8430578;28;19920;-69
2022/03/14 22:45:07;;;;;;;;;;;7.10;99.90;;;;;;8422985;28;20276;-69
2022/03/14 22:49:09;;;;;;;;;;;7.10;99.90;;;;;;8429858;28;20400;-69
2022/03/14 22:53:11;;;;;;;;;;;7.10;99.90;;;;;;8410086;28;19928;-68
2022/03/14 22:57:13;;;;;;;;;;;7.00;99.90;;;;;;8412853;28;19927;-69
2022/03/14 23:01:18;;;;;;;;;;;6.90;99.90;;;;;;8404049;28;19920;-69
2022/03/14 23:05:20;;;;;;;;;;;6.80;99.90;;;;;;8417772;28;20595;-69
2022/03/14 23:09:22;;;;;;;;;;;6.80;99.90;;;;;;8400731;28;20000;-69
2022/03/14 23:13:25;;;;;;;;;;;6.70;99.90;;;;;;8414859;28;19920;-68
2022/03/14 23:17:27;;;;;;;;;;;6.70;99.90;;;;;;8399436;28;19927;-69
2022/03/14 23:21:29;;;;;;;;;;;6.60;99.90;;;;;;8414839;28;19927;-68
2022/03/14 23:25:32;;;;;;;;;;;6.60;99.90;;;;;;8409815;28;19927;-69
2022/03/14 23:29:34;;;;;;;;;;;6.50;99.90;;;;;;8413678;28;19924;-69
2022/03/14 23:33:35;;;;;;;;;;;6.50;99.90;;;;;;8410562;28;20336;-69
2022/03/14 23:37:37;;;;;;;;;;;6.40;99.90;;;;;;8400931;28;19920;-69
2022/03/14 23:41:40;;;;;;;;;;;6.40;99.90;;;;;;8415738;28;19928;-69